createdAt,value
2022-07-25T00:01:09.494Z,962.16
2022-07-25T00:06:13.359Z,962.14
2022-07-25T00:11:12.923Z,962.13
2022-07-25T00:16:14.895Z,962.12
2022-07-25T00:21:16.714Z,962.07
2022-07-25T00:26:18.534Z,961.97
2022-07-25T00:31:19.929Z,961.95
2022-07-25T00:36:21.521Z,961.87
2022-07-25T00:41:23.107Z,961.8
2022-07-25T00:46:24.502Z,961.79
2022-07-25T00:51:25.712Z,961.76
2022-07-25T00:56:27.294Z,961.77
2022-07-25T01:01:29.477Z,961.82
2022-07-25T01:06:31.042Z,961.78
2022-07-25T01:11:32.595Z,961.77
2022-07-25T01:16:34.497Z,961.77
2022-07-25T01:21:36.206Z,961.75
2022-07-25T01:26:37.565Z,961.71
2022-07-25T01:31:39.034Z,961.66
2022-07-25T01:36:40.960Z,961.63
2022-07-25T01:41:42.245Z,961.56
2022-07-25T01:46:44.185Z,961.48
2022-07-25T01:51:45.629Z,961.46
2022-07-25T01:56:48.380Z,961.39
2022-07-25T02:01:49.446Z,961.37
2022-07-25T02:06:51.422Z,961.32
2022-07-25T02:11:53.627Z,961.28
2022-07-25T02:16:55.285Z,961.25
2022-07-25T02:21:57.321Z,961.24
2022-07-25T02:26:58.707Z,961.21
2022-07-25T02:32:00.851Z,961.17
2022-07-25T02:37:02.155Z,961.19
2022-07-25T02:42:03.579Z,961.16
2022-07-25T02:47:05.236Z,961.14
2022-07-25T02:52:06.747Z,961.18
2022-07-25T02:57:07.973Z,961.16
2022-07-25T03:02:09.400Z,961.18
2022-07-25T03:07:10.560Z,961.21
2022-07-25T03:12:12.007Z,961.18
2022-07-25T03:17:13.296Z,961.15
2022-07-25T03:22:14.727Z,961.18
2022-07-25T03:27:16.416Z,961.16
2022-07-25T03:32:18.571Z,961.15
2022-07-25T03:37:20.001Z,961.17
2022-07-25T03:42:26.395Z,961.08
2022-07-25T03:47:23.720Z,961.06
2022-07-25T03:52:25.766Z,961.01
2022-07-25T03:57:27.618Z,960.98
2022-07-25T04:02:29.314Z,960.98
2022-07-25T04:07:30.624Z,960.98
2022-07-25T04:12:31.933Z,960.97
2022-07-25T04:17:33.839Z,960.96
2022-07-25T04:22:35.309Z,960.93
2022-07-25T04:27:36.534Z,960.87
2022-07-25T04:32:38.192Z,960.86
2022-07-25T04:37:39.772Z,960.84
2022-07-25T04:42:41.702Z,960.84
2022-07-25T04:47:43.810Z,960.79
2022-07-25T04:52:45.149Z,960.8
2022-07-25T04:57:47.080Z,960.8
2022-07-25T05:02:48.409Z,960.76
2022-07-25T05:07:50.079Z,960.74
2022-07-25T05:12:51.433Z,960.73
2022-07-25T05:17:53.043Z,960.73
2022-07-25T05:22:54.464Z,960.72
2022-07-25T05:27:56.094Z,960.73
2022-07-25T05:32:57.440Z,960.77
2022-07-25T05:37:58.905Z,960.73
2022-07-25T05:43:03.162Z,960.78
2022-07-25T05:48:01.971Z,960.67
2022-07-25T05:53:04.045Z,960.62
2022-07-25T05:58:06.190Z,960.67
2022-07-25T06:03:08.269Z,960.56
2022-07-25T06:08:10.002Z,960.56
2022-07-25T06:13:11.838Z,960.53
2022-07-25T06:18:13.123Z,960.6
2022-07-25T06:23:15.147Z,960.55
2022-07-25T06:28:18.027Z,960.56
2022-07-25T06:33:17.928Z,960.52
2022-07-25T06:38:19.756Z,960.48
2022-07-25T06:43:28.189Z,960.44
2022-07-25T06:48:30.341Z,960.37
2022-07-25T06:53:31.654Z,960.34
2022-07-25T06:58:33.436Z,960.35
2022-07-25T07:03:34.764Z,960.34
2022-07-25T07:08:36.465Z,960.27
2022-07-25T07:13:37.922Z,960.21
2022-07-25T07:18:39.796Z,960.24
2022-07-25T07:23:41.127Z,960.16
2022-07-25T07:28:43.276Z,960.13
2022-07-25T07:33:44.699Z,960.1
2022-07-25T07:38:46.451Z,960.07
2022-07-25T07:43:47.692Z,960.13
2022-07-25T07:48:48.895Z,960.05
2022-07-25T07:53:50.278Z,960.03
2022-07-25T07:58:51.880Z,960.05
2022-07-25T08:03:53.614Z,960.09
2022-07-25T08:08:54.790Z,960.08
2022-07-25T08:13:55.956Z,960.06
2022-07-25T08:18:57.388Z,960.04
2022-07-25T08:23:59.180Z,960.03
2022-07-25T08:29:17.958Z,959.96
2022-07-25T08:34:02.810Z,959.9
2022-07-25T08:39:03.938Z,959.88
2022-07-25T08:44:06.070Z,959.87
2022-07-25T09:19:18.014Z,959.72
2022-07-25T09:29:21.146Z,959.59
2022-07-25T09:44:26.554Z,959.63
2022-07-25T09:49:28.219Z,959.63
2022-07-25T09:59:31.495Z,959.49
2022-07-25T10:04:33.610Z,959.42
2022-07-25T10:09:35.777Z,959.41
2022-07-25T10:14:37.721Z,959.35
2022-07-25T10:19:39.408Z,959.31
2022-07-25T10:24:40.728Z,959.25
2022-07-25T10:29:42.528Z,959.24
2022-07-25T10:34:44.696Z,959.2
2022-07-25T10:39:46.022Z,959.09
2022-07-25T10:44:47.292Z,959.03
2022-07-25T10:50:13.743Z,958.97
2022-07-25T10:54:50.606Z,959
2022-07-25T10:59:51.834Z,958.97
2022-07-25T11:04:53.779Z,958.88
2022-07-25T11:09:55.657Z,958.93
2022-07-25T11:14:57.717Z,958.87
2022-07-25T11:19:59.167Z,958.84
2022-07-25T11:25:00.751Z,958.74
2022-07-25T11:30:02.098Z,958.68
2022-07-25T11:35:03.541Z,958.69
2022-07-25T11:40:04.726Z,958.6
2022-07-25T11:45:06.158Z,958.55
2022-07-25T11:50:07.666Z,958.47
2022-07-25T11:55:09.445Z,958.43
2022-07-25T12:00:10.862Z,958.38
2022-07-25T12:05:12.469Z,958.38
2022-07-25T12:10:13.644Z,958.36
2022-07-25T12:15:15.006Z,958.26
2022-07-25T12:20:16.839Z,958.23
2022-07-25T12:25:18.286Z,958.22
2022-07-25T12:30:20.210Z,958.13
2022-07-25T12:35:21.511Z,958.08
2022-07-25T12:40:22.727Z,958.09
2022-07-25T12:45:23.965Z,958.03
2022-07-25T12:50:25.256Z,958
2022-07-25T12:55:27.007Z,957.9
2022-07-25T13:00:28.365Z,957.88
2022-07-25T13:05:29.992Z,957.91
2022-07-25T13:10:31.678Z,957.9
2022-07-25T13:15:33.016Z,957.86
2022-07-25T13:20:35.012Z,957.76
2022-07-25T13:25:36.478Z,957.77
2022-07-25T13:30:37.916Z,957.67
2022-07-25T13:35:40.055Z,957.68
2022-07-25T13:40:41.399Z,957.63
2022-07-25T13:45:42.986Z,957.58
2022-07-25T13:50:44.753Z,957.54
2022-07-25T13:55:46.664Z,957.46
2022-07-25T14:00:48.390Z,957.37
2022-07-25T14:05:49.895Z,957.38
2022-07-25T14:10:51.983Z,957.28
2022-07-25T14:15:53.546Z,957.25
2022-07-25T14:20:55.405Z,957.21
2022-07-25T14:25:57.401Z,957.21
2022-07-25T14:30:59.170Z,957.14
2022-07-25T14:36:01.030Z,957.06
2022-07-25T14:41:02.639Z,957.06
2022-07-25T14:46:04.181Z,956.93
2022-07-25T14:51:05.930Z,956.95
2022-07-25T14:56:07.726Z,956.89
2022-07-25T15:01:09.042Z,956.82
2022-07-25T15:06:10.414Z,956.86
2022-07-25T15:11:11.985Z,956.82
2022-07-25T15:16:13.624Z,956.66
2022-07-25T15:21:14.756Z,956.6
2022-07-25T15:26:16.843Z,956.58
2022-07-25T15:31:18.684Z,956.54
2022-07-25T15:36:20.050Z,956.47
2022-07-25T15:41:22.091Z,956.34
2022-07-25T15:46:23.539Z,956.31
2022-07-25T15:51:24.972Z,956.26
2022-07-25T15:56:26.953Z,956.15
2022-07-25T16:01:28.998Z,956.16
2022-07-25T16:06:30.359Z,956.1
2022-07-25T16:11:31.657Z,956.02
2022-07-25T16:16:33.668Z,955.98
2022-07-25T16:21:34.909Z,956
2022-07-25T16:26:36.140Z,955.94
2022-07-25T16:31:37.812Z,955.89
2022-07-25T16:36:39.643Z,955.82
2022-07-25T16:41:41.774Z,955.81
2022-07-25T16:46:43.280Z,955.79
2022-07-25T16:51:44.532Z,955.78
2022-07-25T16:56:48.157Z,955.75
2022-07-25T17:01:48.004Z,955.76
2022-07-25T17:06:49.844Z,955.81
2022-07-25T17:11:51.827Z,955.76
2022-07-25T17:16:53.876Z,955.71
2022-07-25T17:21:55.746Z,955.84
2022-07-25T17:26:57.186Z,955.85
2022-07-25T17:31:58.827Z,955.87
2022-07-25T17:37:00.181Z,955.94
2022-07-25T17:42:02.289Z,956.05
2022-07-25T17:47:03.853Z,956.3
2022-07-25T17:52:05.610Z,956.35
2022-07-25T17:57:07.325Z,956.37
2022-07-25T18:02:09.486Z,956.47
2022-07-25T18:07:10.643Z,956.53
2022-07-25T18:12:12.208Z,956.7
2022-07-25T18:17:13.406Z,956.7
2022-07-25T18:22:15.326Z,956.76
2022-07-25T18:27:17.445Z,956.8
2022-07-25T18:32:19.492Z,957.04
2022-07-25T18:37:21.137Z,957.19
2022-07-25T18:42:26.210Z,957.15
2022-07-25T18:47:23.819Z,957.1
2022-07-25T18:52:24.962Z,957.08
2022-07-25T18:57:26.881Z,957.04
2022-07-25T19:02:28.323Z,957.09
2022-07-25T19:07:29.580Z,957.12
2022-07-25T19:12:31.077Z,957.21
2022-07-25T19:17:32.801Z,957.23
2022-07-25T19:22:33.973Z,957.19
2022-07-25T19:27:35.180Z,957.27
2022-07-25T19:32:37.086Z,957.33
2022-07-25T19:37:38.704Z,957.41
2022-07-25T19:42:40.459Z,957.31
2022-07-25T19:47:41.828Z,957.22
2022-07-25T19:52:43.483Z,957.31
2022-07-25T19:57:45.706Z,957.56
2022-07-25T20:02:47.509Z,957.55
2022-07-25T20:07:49.442Z,957.77
2022-07-25T20:12:51.242Z,957.78
2022-07-25T20:17:52.714Z,957.61
2022-07-25T20:22:54.619Z,957.42
2022-07-25T20:27:55.808Z,957.74
2022-07-25T20:32:57.671Z,958.37
2022-07-25T20:37:59.772Z,958.51
2022-07-25T20:43:00.971Z,957.92
2022-07-25T20:48:02.564Z,957.92
2022-07-25T20:53:04.241Z,958.13
2022-07-25T20:58:06.415Z,958.14
2022-07-25T21:03:08.023Z,958.17
2022-07-25T21:08:08.985Z,958.69
2022-07-25T21:13:11.003Z,959.51
2022-07-25T21:18:12.959Z,959.61
2022-07-25T21:23:14.999Z,959.96
2022-07-25T21:28:16.819Z,960.11
2022-07-25T21:33:18.396Z,960.2
2022-07-25T21:38:26.584Z,960.54
2022-07-25T21:43:21.234Z,960.77
2022-07-25T21:48:23.260Z,960.74
2022-07-25T21:53:25.399Z,960.97
2022-07-25T21:58:26.760Z,960.72
2022-07-25T22:03:28.537Z,960.74
2022-07-25T22:08:30.341Z,960.87
2022-07-25T22:13:31.726Z,960.93
2022-07-25T22:18:33.843Z,961.36
2022-07-25T22:23:35.650Z,961.37
2022-07-25T22:28:36.847Z,961.9
2022-07-25T22:33:38.444Z,962.07
2022-07-25T22:38:40.232Z,961.94
2022-07-25T22:43:48.713Z,961.78
2022-07-25T22:48:43.643Z,961.85
2022-07-25T22:53:45.300Z,961.94
2022-07-25T22:58:46.720Z,962.11
2022-07-25T23:03:48.303Z,962.17
2022-07-25T23:08:49.548Z,962.32
2022-07-25T23:13:50.936Z,962.22
2022-07-25T23:18:52.486Z,962.17
2022-07-25T23:23:54.316Z,962.38
2022-07-25T23:28:56.025Z,962.44
2022-07-25T23:29:02.419Z,962.42
2022-07-25T23:34:03.736Z,962.2
2022-07-25T23:39:05.451Z,962.27
2022-07-25T23:49:08.465Z,962.02
